Time;durP1;ratioP1;P1;durP2;ratioP2;P2;SDS_P1;SDS_P2;PMS_P1;PMS_P2;Temp;Humidity;BMP_temperature;BMP_pressure;BME280_temperature;BME280_humidity;BME280_pressure;Samples;Min_cycle;Max_cycle;Signal;HPM_P1;HPM_P2
2022/05/06 00:01:59;;;;;;;13.60;11.00;;;;;;;10.26;100.00;99840.98;103572;1303;22721;-24
2022/05/06 00:04:28;;;;;;;14.30;11.90;;;;;;;10.24;100.00;99838.17;103613;1303;24967;-25
2022/05/06 00:06:57;;;;;;;82.80;10.60;;;;;;;10.19;100.00;99836.52;103562;1303;22803;-25
2022/05/06 00:09:26;;;;;;;15.80;11.80;;;;;;;10.12;100.00;99834.63;103529;1303;22908;-32
2022/05/06 00:11:55;;;;;;;22.90;16.40;;;;;;;10.05;100.00;99830.98;103383;1301;22657;-28
2022/05/06 00:14:24;;;;;;;20.60;16.00;;;;;;;10.02;100.00;99832.55;103552;1302;25083;-29
2022/05/06 00:16:53;;;;;;;24.80;14.80;;;;;;;10.02;100.00;99834.56;103601;1303;24400;-25
2022/05/06 00:19:22;;;;;;;21.10;16.50;;;;;;;10.00;100.00;99838.13;103541;1303;24352;-28
2022/05/06 00:21:51;;;;;;;18.20;13.30;;;;;;;10.00;100.00;99841.75;103565;1302;23640;-27
2022/05/06 00:24:20;;;;;;;22.10;16.20;;;;;;;9.99;100.00;99845.45;103335;1303;23770;-31
2022/05/06 00:26:49;;;;;;;17.60;14.30;;;;;;;9.96;100.00;99844.25;103550;1302;23055;-28
2022/05/06 00:29:18;;;;;;;15.10;12.60;;;;;;;9.93;100.00;99842.63;103596;1303;22499;-31
2022/05/06 00:31:47;;;;;;;16.10;11.90;;;;;;;9.84;100.00;99842.81;103561;1303;22509;-26
2022/05/06 00:34:16;;;;;;;18.70;12.80;;;;;;;9.80;100.00;99843.84;103554;1302;22515;-31
2022/05/06 00:36:45;;;;;;;13.30;9.50;;;;;;;9.76;100.00;99846.73;103553;1303;22498;-24
2022/05/06 00:39:15;;;;;;;16.40;12.00;;;;;;;9.67;100.00;99846.16;103482;1303;25238;-25
2022/05/06 00:41:44;;;;;;;10.80;8.30;;;;;;;9.67;100.00;99846.41;103509;1302;24995;-32
2022/05/06 00:44:13;;;;;;;12.20;9.30;;;;;;;9.66;100.00;99848.59;103538;1303;22604;-29
2022/05/06 00:46:42;;;;;;;16.20;13.10;;;;;;;9.62;100.00;99848.84;103569;1303;23585;-29
2022/05/06 00:49:12;;;;;;;16.10;12.40;;;;;;;9.59;100.00;99850.88;103557;1303;23528;-25
2022/05/06 00:51:41;;;;;;;22.70;12.70;;;;;;;9.56;100.00;99854.02;103538;1303;23596;-28
2022/05/06 00:54:10;;;;;;;15.90;12.70;;;;;;;9.54;100.00;99851.29;103556;1303;22628;-25
2022/05/06 00:56:39;;;;;;;16.40;12.10;;;;;;;9.50;100.00;99851.71;103597;1303;23592;-30
2022/05/06 00:59:08;;;;;;;15.60;11.70;;;;;;;9.46;100.00;99850.23;103499;1303;25149;-25
2022/05/06 01:01:37;;;;;;;32.70;9.50;;;;;;;9.38;100.00;99850.86;103590;1303;23914;-29
2022/05/06 01:04:06;;;;;;;29.10;10.30;;;;;;;9.42;100.00;99850.73;103531;1303;23808;-29
2022/05/06 01:06:36;;;;;;;19.90;9.30;;;;;;;9.38;100.00;99852.02;103559;1303;24253;-31
2022/05/06 01:09:05;;;;;;;29.70;10.60;;;;;;;9.33;100.00;99849.79;103534;1303;23590;-24
2022/05/06 01:11:34;;;;;;;23.70;13.00;;;;;;;9.27;100.00;99849.05;103541;1303;23794;-25
2022/05/06 01:14:03;;;;;;;16.70;12.40;;;;;;;9.21;100.00;99855.45;103549;1303;23749;-25
2022/05/06 01:16:33;;;;;;;57.30;12.80;;;;;;;9.18;100.00;99855.43;103561;1303;25024;-29
2022/05/06 01:19:03;;;;;;;18.50;11.60;;;;;;;9.13;100.00;99856.41;103616;1303;24918;-29
2022/05/06 01:21:35;;;;;;;22.80;10.10;;;;;;;9.03;100.00;99854.65;103544;1303;24975;-25
2022/05/06 01:24:04;;;;;;;40.70;10.50;;;;;;;8.96;100.00;99861.89;103534;1303;23536;-25
2022/05/06 01:26:40;;;;;;;52.20;12.40;;;;;;;8.89;100.00;99861.98;103380;1303;25197;-28
2022/05/06 01:29:09;;;;;;;35.40;11.20;;;;;;;8.82;100.00;99858.23;103522;1303;22743;-28
2022/05/06 01:31:38;;;;;;;46.40;11.60;;;;;;;8.81;100.00;99856.79;103509;1303;24060;-26
2022/05/06 01:34:09;;;;;;;29.20;12.20;;;;;;;8.79;100.00;99859.58;103321;1302;24745;-30
2022/05/06 01:36:38;;;;;;;17.30;9.00;;;;;;;8.79;100.00;99868.82;103559;1303;23811;-29
2022/05/06 01:39:07;;;;;;;17.00;10.30;;;;;;;8.78;100.00;99873.54;103558;1303;24215;-29
2022/05/06 01:41:37;;;;;;;16.80;9.30;;;;;;;8.73;100.00;99876.65;103549;1302;25101;-29
2022/05/06 01:44:08;;;;;;;19.60;12.20;;;;;;;8.76;100.00;99877.20;103507;1303;25101;-30
2022/05/06 01:46:37;;;;;;;37.20;14.20;;;;;;;8.79;100.00;99879.19;103627;1303;24725;-26
2022/05/06 01:49:06;;;;;;;23.00;12.50;;;;;;;8.61;100.00;99876.14;103564;1302;24191;-25
2022/05/06 01:51:36;;;;;;;16.80;8.40;;;;;;;8.58;100.00;99874.41;103417;1303;24188;-27
2022/05/06 01:54:05;;;;;;;9.80;7.70;;;;;;;8.62;100.00;99877.36;103398;1303;23887;-26
2022/05/06 01:56:34;;;;;;;13.00;7.20;;;;;;;8.63;100.00;99878.31;103545;1303;23823;-25
2022/05/06 01:59:03;;;;;;;11.20;6.00;;;;;;;8.54;100.00;99879.19;103535;1303;22734;-29
2022/05/06 02:01:33;;;;;;;17.20;8.50;;;;;;;8.48;100.00;99876.12;103551;1303;24348;-29
2022/05/06 02:06:35;;;;;;;10.10;8.60;;;;;;;8.68;100.00;99878.63;103526;1303;23236;-29
2022/05/06 02:09:04;;;;;;;8.60;7.70;;;;;;;8.69;100.00;99884.39;103594;1302;22622;-24
2022/05/06 02:11:33;;;;;;;24.10;8.40;;;;;;;8.53;100.00;99889.61;103403;1303;24378;-29
2022/05/06 02:14:03;;;;;;;9.00;8.00;;;;;;;8.30;100.00;99885.52;103556;1302;23897;-29
2022/05/06 02:16:32;;;;;;;28.70;10.60;;;;;;;8.21;100.00;99885.40;103589;1303;25022;-29
2022/05/06 02:19:01;;;;;;;16.20;8.50;;;;;;;8.14;100.00;99887.65;103525;1303;24964;-29
2022/05/06 02:21:31;;;;;;;61.60;10.00;;;;;;;8.13;100.00;99888.33;103485;1303;23599;-29
2022/05/06 02:24:00;;;;;;;66.70;11.90;;;;;;;8.12;100.00;99891.00;103580;1303;22626;-29
2022/05/06 02:26:29;;;;;;;8.00;7.10;;;;;;;8.17;100.00;99896.20;103548;1303;23569;-25
2022/05/06 02:28:58;;;;;;;11.50;9.50;;;;;;;8.15;100.00;99897.11;103549;1302;22789;-25
2022/05/06 02:33:59;;;;;;;13.30;9.90;;;;;;;8.03;100.00;99899.33;103545;1303;22508;-30
2022/05/06 02:36:28;;;;;;;19.00;8.60;;;;;;;8.02;100.00;99903.94;103562;1303;23884;-29
2022/05/06 02:38:57;;;;;;;17.10;8.30;;;;;;;8.01;100.00;99905.69;103567;1303;24237;-30
2022/05/06 02:41:27;;;;;;;13.10;8.90;;;;;;;8.04;100.00;99907.59;103606;1303;23862;-25
2022/05/06 02:43:56;;;;;;;7.70;7.00;;;;;;;8.03;100.00;99910.77;103575;1303;23920;-29
2022/05/06 02:46:25;;;;;;;42.10;8.80;;;;;;;8.04;100.00;99907.95;103573;1303;22730;-25
2022/05/06 02:48:54;;;;;;;48.00;8.30;;;;;;;8.06;100.00;99910.17;103549;1303;22774;-29
2022/05/06 02:51:23;;;;;;;42.90;10.70;;;;;;;8.10;100.00;99911.98;103535;1303;25021;-29
2022/05/06 02:53:52;;;;;;;54.10;10.20;;;;;;;8.11;100.00;99916.89;103542;1303;23867;-25
2022/05/06 02:56:22;;;;;;;24.00;10.20;;;;;;;8.10;100.00;99918.05;103585;1303;22500;-28
2022/05/06 02:58:51;;;;;;;42.50;11.50;;;;;;;8.10;100.00;99916.63;103591;1303;23589;-29
2022/05/06 03:01:20;;;;;;;40.30;9.90;;;;;;;8.07;100.00;99919.13;103593;1303;22949;-28
2022/05/06 03:03:49;;;;;;;15.70;10.30;;;;;;;8.08;100.00;99916.98;103592;1303;23612;-31
2022/05/06 03:06:18;;;;;;;23.70;8.30;;;;;;;8.13;100.00;99915.95;103561;1303;24292;-24
2022/05/06 03:08:47;;;;;;;23.60;9.40;;;;;;;8.18;100.00;99917.10;103616;1303;24211;-25
2022/05/06 03:11:16;;;;;;;11.60;9.60;;;;;;;8.21;100.00;99918.48;103581;1303;23655;-29
2022/05/06 03:13:45;;;;;;;10.60;9.50;;;;;;;8.29;100.00;99917.93;103562;1303;22487;-29
2022/05/06 03:16:14;;;;;;;12.60;10.90;;;;;;;8.33;100.00;99919.95;103600;1303;23787;-30
2022/05/06 03:18:42;;;;;;;10.00;9.00;;;;;;;8.38;100.00;99920.98;103585;1303;22784;-29
2022/05/06 03:21:11;;;;;;;16.60;11.80;;;;;;;8.39;100.00;99919.59;103651;1303;24657;-29
2022/05/06 03:23:40;;;;;;;12.50;9.50;;;;;;;8.41;100.00;99918.85;103565;1303;23604;-26
2022/05/06 03:26:09;;;;;;;16.40;10.10;;;;;;;8.44;100.00;99919.31;103543;1303;24983;-30
2022/05/06 03:28:38;;;;;;;13.20;11.70;;;;;;;8.49;100.00;99919.27;103571;1303;24208;-29
2022/05/06 03:31:07;;;;;;;17.20;13.00;;;;;;;8.54;100.00;99913.41;103580;1303;23609;-30
2022/05/06 03:33:36;;;;;;;13.70;12.20;;;;;;;8.57;100.00;99911.14;103577;1303;22504;-30
2022/05/06 03:36:05;;;;;;;13.90;11.00;;;;;;;8.58;100.00;99909.42;103582;1303;23855;-26
2022/05/06 03:38:34;;;;;;;10.30;8.70;;;;;;;8.66;100.00;99911.11;103580;1303;22520;-29
2022/05/06 03:41:03;;;;;;;12.60;9.90;;;;;;;8.71;100.00;99910.80;103340;1303;22498;-25
2022/05/06 03:43:32;;;;;;;13.40;10.00;;;;;;;8.78;100.00;99916.89;103483;1303;22510;-29
2022/05/06 03:46:01;;;;;;;10.10;9.10;;;;;;;8.83;100.00;99922.61;103562;1303;22968;-31
2022/05/06 03:48:30;;;;;;;15.60;10.80;;;;;;;8.89;100.00;99926.97;103551;1303;23590;-30
2022/05/06 03:53:31;;;;;;;10.80;9.70;;;;;;;8.93;100.00;99937.61;103419;1303;24294;-32
2022/05/06 03:56:01;;;;;;;14.90;12.80;;;;;;;8.97;100.00;99940.52;103574;1302;23801;-26
2022/05/06 03:58:30;;;;;;;13.30;9.90;;;;;;;9.09;100.00;99945.02;103555;1303;23597;-30
2022/05/06 04:00:59;;;;;;;13.30;9.00;;;;;;;9.23;100.00;99950.25;103504;1303;22542;-30
2022/05/06 04:03:28;;;;;;;13.80;10.00;;;;;;;9.31;100.00;99950.71;103552;1303;25002;-25
2022/05/06 04:05:57;;;;;;;12.90;11.30;;;;;;;9.39;100.00;99953.16;103529;1303;23776;-26
2022/05/06 04:08:27;;;;;;;13.30;11.70;;;;;;;9.40;100.00;99956.44;103559;1302;22502;-24
2022/05/06 04:10:57;;;;;;;14.30;11.10;;;;;;;9.43;100.00;99958.91;103514;1303;25081;-26
2022/05/06 04:13:26;;;;;;;14.60;12.00;;;;;;;9.38;100.00;99963.63;103520;1303;22654;-29
2022/05/06 04:15:55;;;;;;;17.00;11.90;;;;;;;9.29;100.00;99965.30;103279;1302;495620;-29
2022/05/06 04:18:24;;;;;;;16.60;11.60;;;;;;;9.30;100.00;99970.36;103556;1303;24294;-29
2022/05/06 04:26:00;;;;;;;11.70;9.50;;;;;;;9.42;100.00;99985.11;103611;1303;22740;-32
2022/05/06 04:28:29;;;;;;;13.50;10.80;;;;;;;9.49;100.00;99989.27;103636;1302;24301;-26
2022/05/06 04:30:58;;;;;;;15.80;12.20;;;;;;;9.56;100.00;99989.23;103585;1303;23759;-31
2022/05/06 04:33:28;;;;;;;20.30;11.50;;;;;;;9.59;100.00;99988.85;103608;1303;23870;-31
2022/05/06 04:35:57;;;;;;;13.30;10.00;;;;;;;9.62;100.00;99994.30;103514;1303;22744;-30
2022/05/06 04:38:26;;;;;;;11.40;9.40;;;;;;;9.64;100.00;99996.50;103566;1303;22506;-30
2022/05/06 04:40:56;;;;;;;12.70;11.10;;;;;;;9.68;100.00;100000.91;103548;1303;22523;-25
2022/05/06 04:43:25;;;;;;;17.20;13.80;;;;;;;9.76;100.00;100000.70;103589;1301;23178;-30
2022/05/06 04:45:55;;;;;;;12.70;11.20;;;;;;;9.72;100.00;100003.10;103474;1303;24267;-29
2022/05/06 04:48:25;;;;;;;14.30;11.80;;;;;;;9.74;100.00;100004.09;103368;1303;22514;-29
2022/05/06 04:50:54;;;;;;;14.10;11.60;;;;;;;9.80;100.00;100004.73;103576;1303;24241;-32
2022/05/06 04:53:22;;;;;;;13.40;10.00;;;;;;;9.86;100.00;100011.66;103591;1303;24301;-30
2022/05/06 04:55:51;;;;;;;11.20;10.10;;;;;;;9.99;100.00;100011.11;103519;1303;22610;-25
2022/05/06 04:58:20;;;;;;;17.30;14.10;;;;;;;10.05;100.00;100012.39;103632;1303;24196;-30
2022/05/06 05:00:50;;;;;;;17.90;13.80;;;;;;;10.06;100.00;100016.14;103571;1303;24301;-26
2022/05/06 05:03:20;;;;;;;19.90;14.30;;;;;;;10.12;100.00;100020.20;103561;1303;22492;-26
2022/05/06 05:05:50;;;;;;;21.40;12.50;;;;;;;10.13;100.00;100024.88;103516;1303;25232;-25
2022/05/06 05:08:19;;;;;;;28.80;15.40;;;;;;;10.15;100.00;100023.86;103572;1303;22508;-32
2022/05/06 05:10:48;;;;;;;22.30;16.40;;;;;;;10.22;100.00;100026.09;103557;1303;22519;-26
2022/05/06 05:13:17;;;;;;;19.30;13.90;;;;;;;10.23;100.00;100023.54;103534;1303;23788;-25
2022/05/06 05:15:46;;;;;;;19.40;15.40;;;;;;;10.25;100.00;100025.00;103522;1303;22953;-30
2022/05/06 05:18:15;;;;;;;16.70;13.50;;;;;;;10.27;100.00;100018.39;103533;1303;22496;-26
2022/05/06 05:20:44;;;;;;;16.20;13.30;;;;;;;10.34;100.00;100016.50;103499;1303;23607;-25
2022/05/06 05:23:13;;;;;;;29.40;17.20;;;;;;;10.41;100.00;100021.33;103567;1303;24995;-24
2022/05/06 05:25:43;;;;;;;18.50;14.40;;;;;;;10.46;100.00;100020.48;103482;1303;23746;-26
2022/05/06 05:28:12;;;;;;;13.10;11.30;;;;;;;10.50;100.00;100021.11;103591;1303;22497;-29
2022/05/06 05:30:41;;;;;;;22.00;13.20;;;;;;;10.58;100.00;100019.60;103543;1303;23861;-29
2022/05/06 05:33:10;;;;;;;22.40;15.80;;;;;;;10.65;100.00;100023.30;103594;1303;25012;-29
2022/05/06 05:35:39;;;;;;;15.40;12.90;;;;;;;10.68;100.00;100025.16;103576;1303;22816;-25
2022/05/06 05:38:09;;;;;;;16.70;13.40;;;;;;;10.66;100.00;100028.98;103544;1303;22510;-25
2022/05/06 05:40:38;;;;;;;16.50;12.30;;;;;;;10.68;100.00;100030.02;103545;1303;24305;-29
2022/05/06 05:48:19;;;;;;;20.40;15.60;;;;;;;10.75;100.00;100029.77;103328;1303;23881;-32
2022/05/06 05:48:29;;;;;;;29.10;18.60;;;;;;;10.96;100.00;100035.66;103551;1303;24454;-26
2022/05/06 05:50:58;;;;;;;25.50;17.50;;;;;;;11.06;100.00;100033.27;103572;1303;24295;-26
2022/05/06 05:53:27;;;;;;;26.30;19.90;;;;;;;11.15;100.00;100028.77;103604;1301;24470;-30
2022/05/06 05:55:56;;;;;;;24.10;18.20;;;;;;;11.19;100.00;100033.64;103578;1302;24287;-30
2022/05/06 05:58:26;;;;;;;27.40;21.00;;;;;;;11.28;100.00;100028.96;103545;1303;24326;-27
2022/05/06 06:00:55;;;;;;;23.90;17.90;;;;;;;11.37;100.00;100030.62;103670;1303;24233;-26
2022/05/06 06:03:24;;;;;;;23.00;17.40;;;;;;;11.42;100.00;100029.82;103638;1303;22484;-26
2022/05/06 06:05:53;;;;;;;23.90;19.70;;;;;;;11.46;100.00;100027.27;103567;1303;22512;-26
2022/05/06 06:08:24;;;;;;;31.90;23.70;;;;;;;11.57;100.00;100031.76;103508;1303;22502;-31
2022/05/06 06:10:53;;;;;;;27.10;18.50;;;;;;;11.64;100.00;100027.09;103550;1303;23536;-28
2022/05/06 06:13:22;;;;;;;35.30;24.20;;;;;;;11.69;100.00;100027.39;103629;1300;23910;-32
2022/05/06 06:15:51;;;;;;;35.60;24.00;;;;;;;11.71;100.00;100029.18;103533;1303;25227;-30
2022/05/06 06:18:24;;;;;;;31.40;22.10;;;;;;;11.66;100.00;100027.40;103317;1303;24208;-27
2022/05/06 06:20:54;;;;;;;27.80;18.60;;;;;;;11.81;100.00;100031.98;103581;1303;22872;-30
2022/05/06 06:23:24;;;;;;;33.40;24.30;;;;;;;11.99;100.00;100034.06;103512;1303;23810;-30
2022/05/06 06:25:53;;;;;;;30.60;20.10;;;;;;;12.07;100.00;100039.38;103529;1303;24234;-25
2022/05/06 06:28:22;;;;;;;33.50;25.20;;;;;;;12.08;100.00;100040.16;103544;1303;23753;-30
2022/05/06 06:30:50;;;;;;;33.50;23.80;;;;;;;12.15;100.00;100044.27;103420;1303;22506;-26
2022/05/06 06:33:19;;;;;;;29.30;20.10;;;;;;;12.25;100.00;100052.41;103423;1303;22942;-28
2022/05/06 06:35:48;;;;;;;36.00;22.00;;;;;;;12.44;100.00;100056.66;103609;1303;23905;-30
2022/05/06 06:38:17;;;;;;;20.20;15.40;;;;;;;12.65;100.00;100058.17;103568;1303;24211;-28
2022/05/06 06:40:46;;;;;;;20.70;16.70;;;;;;;12.68;100.00;100062.14;103493;1303;23634;-25
2022/05/06 06:43:15;;;;;;;32.30;20.20;;;;;;;12.66;100.00;100062.55;103543;1303;22502;-30
2022/05/06 06:45:44;;;;;;;20.60;17.10;;;;;;;12.79;100.00;100061.45;103537;1303;24249;-29
2022/05/06 06:48:13;;;;;;;27.40;21.80;;;;;;;12.93;100.00;100060.73;103592;1303;25209;-29
2022/05/06 06:50:42;;;;;;;29.60;20.40;;;;;;;12.91;100.00;100067.80;103561;1303;24214;-29
2022/05/06 06:53:11;;;;;;;29.00;19.90;;;;;;;12.93;100.00;100069.40;103355;1303;22493;-27
2022/05/06 06:55:40;;;;;;;26.50;21.30;;;;;;;12.94;100.00;100070.62;103601;1302;23610;-27
2022/05/06 06:58:09;;;;;;;26.80;19.90;;;;;;;13.02;100.00;100069.93;103578;1303;23622;-29
2022/05/06 07:00:38;;;;;;;26.30;19.40;;;;;;;13.13;100.00;100062.30;103568;1301;24317;-25
2022/05/06 07:03:07;;;;;;;26.80;18.90;;;;;;;13.34;100.00;100060.01;103370;1303;22502;-25
2022/05/06 07:05:36;;;;;;;30.80;20.70;;;;;;;13.50;100.00;100062.75;103511;1303;24221;-29
2022/05/06 07:13:29;;;;;;;21.80;17.30;;;;;;;13.96;99.58;100067.87;103861;1303;22502;-24
2022/05/06 07:15:58;;;;;;;18.80;14.90;;;;;;;14.06;98.14;100071.06;103568;1303;24963;-25
2022/05/06 07:18:27;;;;;;;17.60;14.50;;;;;;;14.14;98.21;100077.52;103510;1303;24298;-29
2022/05/06 07:20:56;;;;;;;19.90;15.70;;;;;;;14.23;97.24;100077.07;103536;1303;22510;-26
2022/05/06 07:23:25;;;;;;;17.40;14.50;;;;;;;14.21;95.55;100086.55;103536;1303;24989;-29
2022/05/06 07:25:54;;;;;;;19.10;15.80;;;;;;;14.23;94.36;100087.36;103575;1303;22505;-29
2022/05/06 07:28:23;;;;;;;21.30;14.00;;;;;;;14.44;96.56;100086.84;103572;1303;22633;-31
2022/05/06 07:30:52;;;;;;;15.00;13.00;;;;;;;14.49;92.90;100088.40;103584;1303;24243;-29
2022/05/06 07:33:21;;;;;;;22.70;15.40;;;;;;;14.54;92.18;100092.61;103554;1303;24425;-30
2022/05/06 07:35:50;;;;;;;16.10;14.00;;;;;;;14.36;88.55;100101.02;103641;1302;24230;-25
2022/05/06 07:38:19;;;;;;;17.10;12.60;;;;;;;14.51;90.57;100102.45;103615;1303;24237;-25
2022/05/06 07:40:48;;;;;;;13.20;11.10;;;;;;;14.52;87.91;100103.34;103565;1303;23605;-29
2022/05/06 07:43:16;;;;;;;17.90;13.60;;;;;;;14.54;87.94;100100.21;103557;1303;24269;-25
2022/05/06 07:45:45;;;;;;;16.40;13.20;;;;;;;14.62;86.85;100102.41;103585;1303;24192;-26
2022/05/06 07:48:17;;;;;;;18.00;12.70;;;;;;;14.64;85.83;100103.74;103567;1303;23796;-29
2022/05/06 07:50:48;;;;;;;16.60;12.60;;;;;;;14.85;86.92;100103.21;103564;1303;24966;-25
2022/05/06 07:53:17;;;;;;;12.90;9.70;;;;;;;15.02;84.54;100101.48;103619;1303;22541;-29
2022/05/06 07:55:46;;;;;;;13.10;10.40;;;;;;;15.15;83.29;100103.15;103536;1303;23630;-26
2022/05/06 07:58:15;;;;;;;12.00;10.40;;;;;;;15.25;81.81;100100.38;103553;1303;23599;-25
2022/05/06 08:00:44;;;;;;;8.70;7.80;;;;;;;15.52;82.30;100099.01;103399;1301;24224;-25
2022/05/06 08:05:47;;;;;;;13.00;8.50;;;;;;;15.88;79.73;100098.73;103561;1303;23963;-30
2022/05/06 08:08:16;;;;;;;11.00;8.60;;;;;;;15.89;75.95;100098.64;103533;1303;24237;-26
2022/05/06 08:10:45;;;;;;;8.10;7.00;;;;;;;15.75;74.28;100103.63;103529;1303;25104;-30
2022/05/06 08:13:14;;;;;;;13.10;9.70;;;;;;;15.64;73.84;100104.61;103540;1302;22496;-25
2022/05/06 08:15:44;;;;;;;10.90;9.40;;;;;;;15.95;76.00;100102.70;103553;1303;23940;-27
2022/05/06 08:18:13;;;;;;;13.90;9.50;;;;;;;16.18;75.88;100104.38;103559;1303;22496;-26
2022/05/06 08:20:42;;;;;;;9.00;7.60;;;;;;;16.32;73.84;100102.56;103356;1303;24243;-28
2022/05/06 08:23:11;;;;;;;9.20;7.00;;;;;;;16.58;73.74;100102.37;103578;1303;24211;-26
2022/05/06 08:25:41;;;;;;;9.00;7.00;;;;;;;16.91;71.35;100100.29;103482;1303;24252;-26
2022/05/06 08:28:13;;;;;;;5.20;4.20;;;;;;;16.99;64.33;100100.14;103528;1302;25219;-30
2022/05/06 08:30:44;;;;;;;8.20;5.50;;;;;;;17.30;64.70;100101.50;103517;1303;25018;-25
2022/05/06 08:33:14;;;;;;;7.30;5.30;;;;;;;17.36;63.23;100103.23;103505;1303;22515;-25
2022/05/06 08:35:43;;;;;;;9.20;4.30;;;;;;;17.50;63.22;100105.11;103487;1302;24252;-29
2022/05/06 08:38:14;;;;;;;4.10;3.60;;;;;;;17.81;64.06;100101.31;103521;1303;23626;-29
2022/05/06 08:40:43;;;;;;;5.60;4.10;;;;;;;18.14;63.40;100105.69;103521;1303;23911;-25
2022/05/06 08:43:12;;;;;;;8.80;5.60;;;;;;;18.04;60.68;100104.65;103476;1303;22623;-29
2022/05/06 08:50:53;;;;;;;5.40;4.80;;;;;;;18.05;59.76;100109.33;103564;1302;22626;-29
2022/05/06 08:53:24;;;;;;;4.50;4.10;;;;;;;17.70;58.34;100117.13;103547;1303;24207;-29
2022/05/06 08:55:55;;;;;;;7.10;5.00;;;;;;;17.54;59.59;100115.66;103587;1303;25383;-25
2022/05/06 08:58:24;;;;;;;9.80;6.50;;;;;;;17.97;60.78;100116.07;103564;1302;22812;-28
2022/05/06 09:01:01;;;;;;;6.90;5.60;;;;;;;18.03;59.90;100119.23;103411;1303;24298;-29
2022/05/06 09:03:30;;;;;;;5.80;4.70;;;;;;;18.09;60.04;100120.10;103546;1303;22498;-25
2022/05/06 09:06:00;;;;;;;6.20;4.10;;;;;;;18.26;58.16;100121.23;103533;1303;24211;-28
2022/05/06 09:08:34;;;;;;;5.80;3.90;;;;;;;18.09;56.14;100121.74;103561;1303;22498;-30
2022/05/06 09:11:07;;;;;;;6.10;3.50;;;;;;;17.90;55.11;100123.95;103588;1303;24007;-27
2022/05/06 09:13:37;;;;;;;7.00;3.40;;;;;;;17.70;56.40;100130.93;103619;1303;23613;-31
2022/05/06 09:18:45;;;;;;;6.50;4.60;;;;;;;17.75;57.23;100125.95;103582;1303;25084;-29
2022/05/06 09:21:14;;;;;;;7.80;5.40;;;;;;;17.85;55.95;100129.02;103541;1303;24009;-24
2022/05/06 09:23:43;;;;;;;9.40;4.10;;;;;;;18.25;56.33;100128.10;103559;1303;22496;-25
2022/05/06 09:26:15;;;;;;;5.50;4.50;;;;;;;18.57;56.66;100127.89;103596;1303;24313;-25
2022/05/06 09:28:44;;;;;;;4.10;3.60;;;;;;;18.83;55.11;100126.44;103677;1303;24237;-29
2022/05/06 09:31:14;;;;;;;11.70;4.60;;;;;;;18.94;53.08;100125.96;103556;1303;22764;-25
2022/05/06 09:33:46;;;;;;;7.40;5.20;;;;;;;18.93;54.22;100123.09;103581;1303;22496;-25
2022/05/06 09:36:22;;;;;;;4.70;4.00;;;;;;;18.91;53.06;100126.80;103547;1303;25305;-25
2022/05/06 09:38:58;;;;;;;8.50;4.10;;;;;;;18.57;53.52;100124.20;103524;1303;23614;-25
2022/05/06 09:41:27;;;;;;;4.00;3.20;;;;;;;19.32;55.32;100122.95;103546;1303;25351;-27
2022/05/06 09:44:00;;;;;;;5.30;4.20;;;;;;;20.00;53.00;100118.54;103572;1303;24202;-29
2022/05/06 09:46:29;;;;;;;;;;;;;;;19.91;51.22;100116.42;103584;1303;24977;-29
2022/05/06 09:48:59;;;;;;;4.10;3.40;;;;;;;20.05;51.00;100117.52;103597;1303;22505;-28
2022/05/06 09:51:29;;;;;;;6.10;4.00;;;;;;;19.69;48.40;100120.45;103555;1303;25335;-28
2022/05/06 09:53:59;;;;;;;13.70;4.50;;;;;;;19.49;50.17;100121.13;103530;1303;22515;-28
2022/05/06 09:56:28;;;;;;;8.20;4.50;;;;;;;19.34;49.95;100119.64;103527;1303;24195;-28
2022/05/06 09:58:57;;;;;;;8.00;3.90;;;;;;;19.04;50.87;100119.23;103521;1303;23775;-24
2022/05/06 10:01:26;;;;;;;4.20;3.70;;;;;;;19.53;51.50;100115.11;103622;1303;25019;-31
2022/05/06 10:03:56;;;;;;;4.40;3.90;;;;;;;19.83;50.98;100118.26;103477;1303;22506;-25
2022/05/06 10:06:25;;;;;;;4.60;2.90;;;;;;;20.04;51.76;100116.42;103550;1303;24246;-25
2022/05/06 10:08:57;;;;;;;6.30;2.70;;;;;;;20.44;50.00;100122.54;103624;1303;24344;-28
2022/05/06 10:11:28;;;;;;;3.90;2.60;;;;;;;20.01;49.45;100120.08;103576;1303;24126;-25
2022/05/06 10:13:58;;;;;;;3.70;2.30;;;;;;;19.95;48.21;100122.81;103516;1303;25204;-24
2022/05/06 10:16:34;;;;;;;2.10;1.10;;;;;;;19.76;49.61;100123.93;103486;1303;23612;-28
2022/05/06 10:19:03;;;;;;;2.60;1.60;;;;;;;20.13;47.83;100121.34;103548;1303;24255;-28
2022/05/06 10:21:39;;;;;;;6.30;2.60;;;;;;;20.16;46.92;100120.77;103548;1303;24307;-28
2022/05/06 10:24:12;;;;;;;1.40;1.20;;;;;;;19.92;47.33;100124.16;103515;1303;25243;-24
2022/05/06 10:26:43;;;;;;;12.70;2.30;;;;;;;20.09;47.49;100121.27;103616;1301;24292;-25
2022/05/06 10:34:27;;;;;;;7.70;1.40;;;;;;;20.58;43.39;100110.97;103549;1303;22624;-25
2022/05/06 10:37:00;;;;;;;4.30;1.30;;;;;;;19.89;44.15;100110.05;103468;1303;24250;-28
2022/05/06 10:39:35;;;;;;;1.30;0.90;;;;;;;19.61;44.79;100113.72;103530;1303;22729;-29
2022/05/06 10:42:07;;;;;;;5.10;1.50;;;;;;;19.71;44.10;100115.64;103632;1303;23737;-29
2022/05/06 10:44:39;;;;;;;1.80;0.70;;;;;;;19.99;44.63;100111.85;103519;1303;23052;-29
2022/05/06 10:47:11;;;;;;;3.30;1.00;;;;;;;20.04;44.64;100112.85;103534;1303;24259;-25
2022/05/06 10:49:40;;;;;;;2.00;0.80;;;;;;;20.14;43.62;100112.52;103565;1303;23537;-25
2022/05/06 10:52:35;;;;;;;2.80;1.30;;;;;;;20.46;44.79;100110.33;103556;1303;22510;-28
2022/05/06 10:55:04;;;;;;;3.30;1.80;;;;;;;20.42;42.89;100110.23;103446;1303;22796;-25
2022/05/06 10:57:40;;;;;;;1.80;1.00;;;;;;;20.63;43.30;100109.38;103624;1303;24983;-28
2022/05/06 11:00:10;;;;;;;4.80;1.70;;;;;;;20.56;42.51;100110.50;103516;1303;25133;-25
2022/05/06 11:02:39;;;;;;;5.20;1.30;;;;;;;20.78;43.82;100110.96;103508;1303;24233;-24
2022/05/06 11:05:10;;;;;;;2.10;1.50;;;;;;;20.83;42.90;100117.98;103623;1303;22496;-28
2022/05/06 11:07:41;;;;;;;1.60;1.10;;;;;;;20.74;43.56;100118.60;103446;1303;25272;-24
2022/05/06 11:10:16;;;;;;;2.60;1.40;;;;;;;20.70;43.40;100117.54;103578;1303;24932;-29
2022/05/06 11:12:47;;;;;;;3.60;1.90;;;;;;;20.81;44.98;100115.33;103564;1303;24960;-26
2022/05/06 11:15:18;;;;;;;3.30;1.80;;;;;;;20.73;43.04;100108.47;103488;1303;25360;-27
2022/05/06 11:17:48;;;;;;;1.50;0.80;;;;;;;20.30;43.63;100111.03;103582;1303;22838;-29
2022/05/06 11:20:18;;;;;;;3.10;0.80;;;;;;;20.45;43.68;100110.60;103573;1303;23853;-26
2022/05/06 11:22:51;;;;;;;1.40;0.70;;;;;;;20.67;43.28;100114.26;103551;1303;24292;-26
2022/05/06 11:25:22;;;;;;;3.60;0.90;;;;;;;20.98;39.81;100119.17;103600;1303;24255;-30
2022/05/06 11:27:52;;;;;;;1.90;1.00;;;;;;;19.57;41.66;100120.48;103544;1303;25225;-29
2022/05/06 11:30:22;;;;;;;1.70;1.10;;;;;;;19.72;42.42;100120.86;103594;1303;24236;-28
2022/05/06 11:32:53;;;;;;;1.70;0.90;;;;;;;20.07;42.12;100116.58;103539;1303;24316;-24
2022/05/06 11:35:26;;;;;;;1.90;1.00;;;;;;;20.33;41.55;100115.84;103510;1303;25206;-25
2022/05/06 11:37:55;;;;;;;1.80;1.50;;;;;;;19.89;43.07;100116.58;103586;1303;22606;-30
2022/05/06 11:42:54;;;;;;;7.70;0.90;;;;;;;19.84;43.90;100110.30;103533;1303;23904;-25
2022/05/06 11:48:02;;;;;;;1.50;1.10;;;;;;;19.98;42.88;100108.05;103792;1303;22468;-28
2022/05/06 11:50:33;;;;;;;7.20;1.10;;;;;;;20.31;43.26;100103.42;103623;1303;24204;-31
2022/05/06 11:53:04;;;;;;;3.20;1.10;;;;;;;20.43;42.03;100105.18;103637;1303;25344;-29
2022/05/06 11:55:33;;;;;;;4.10;2.00;;;;;;;21.04;41.89;100104.36;103858;1302;25235;-32
2022/05/06 11:58:04;;;;;;;4.00;1.50;;;;;;;20.74;42.63;100106.04;103607;1303;22531;-29
2022/05/06 12:00:33;;;;;;;8.30;1.00;;;;;;;20.73;42.99;100097.39;103653;1303;22497;-29
2022/05/06 12:03:04;;;;;;;4.50;1.30;;;;;;;20.75;42.29;100098.89;103602;1303;25123;-25